sensor_id;sensor_type;location;lat;lon;timestamp;P1;durP1;ratioP1;P2;durP2;ratioP2
49241;SDS011;35079;52.704;13.814;2022-07-10T00:00:27;5.07;;;1.55;;
49241;SDS011;35079;52.704;13.814;2022-07-10T00:02:53;7.40;;;1.80;;
49241;SDS011;35079;52.704;13.814;2022-07-10T00:05:19;5.95;;;1.80;;
49241;SDS011;35079;52.704;13.814;2022-07-10T00:07:45;7.15;;;1.70;;
49241;SDS011;35079;52.704;13.814;2022-07-10T00:10:11;8.65;;;1.92;;
49241;SDS011;35079;52.704;13.814;2022-07-10T00:12:37;5.43;;;1.90;;
49241;SDS011;35079;52.704;13.814;2022-07-10T00:15:03;11.18;;;2.00;;
49241;SDS011;35079;52.704;13.814;2022-07-10T00:17:30;8.63;;;1.88;;
49241;SDS011;35079;52.704;13.814;2022-07-10T00:19:57;7.97;;;1.70;;
49241;SDS011;35079;52.704;13.814;2022-07-10T00:22:23;7.38;;;1.50;;
49241;SDS011;35079;52.704;13.814;2022-07-10T00:24:49;7.25;;;1.67;;
49241;SDS011;35079;52.704;13.814;2022-07-10T00:27:17;6.32;;;1.55;;
49241;SDS011;35079;52.704;13.814;2022-07-10T00:29:43;7.55;;;1.58;;
49241;SDS011;35079;52.704;13.814;2022-07-10T00:32:10;11.43;;;2.08;;
49241;SDS011;35079;52.704;13.814;2022-07-10T00:34:36;5.68;;;1.52;;
49241;SDS011;35079;52.704;13.814;2022-07-10T00:37:02;5.13;;;1.50;;
49241;SDS011;35079;52.704;13.814;2022-07-10T00:39:29;4.57;;;1.58;;
49241;SDS011;35079;52.704;13.814;2022-07-10T00:41:55;4.82;;;1.60;;
49241;SDS011;35079;52.704;13.814;2022-07-10T00:44:30;7.97;;;1.40;;
49241;SDS011;35079;52.704;13.814;2022-07-10T00:46:55;6.43;;;1.60;;
49241;SDS011;35079;52.704;13.814;2022-07-10T00:49:21;5.22;;;1.42;;
49241;SDS011;35079;52.704;13.814;2022-07-10T00:51:47;6.78;;;1.83;;
49241;SDS011;35079;52.704;13.814;2022-07-10T00:54:12;10.00;;;1.77;;
49241;SDS011;35079;52.704;13.814;2022-07-10T00:56:38;5.32;;;1.70;;
49241;SDS011;35079;52.704;13.814;2022-07-10T00:59:04;5.85;;;1.48;;
49241;SDS011;35079;52.704;13.814;2022-07-10T01:01:30;15.20;;;2.35;;
49241;SDS011;35079;52.704;13.814;2022-07-10T01:03:57;8.88;;;1.85;;
49241;SDS011;35079;52.704;13.814;2022-07-10T01:06:22;6.72;;;1.38;;
49241;SDS011;35079;52.704;13.814;2022-07-10T01:08:48;6.70;;;1.90;;
49241;SDS011;35079;52.704;13.814;2022-07-10T01:11:14;5.32;;;1.45;;
49241;SDS011;35079;52.704;13.814;2022-07-10T01:13:49;6.07;;;1.77;;
49241;SDS011;35079;52.704;13.814;2022-07-10T01:16:14;8.10;;;2.13;;
49241;SDS011;35079;52.704;13.814;2022-07-10T01:18:42;6.47;;;1.60;;
49241;SDS011;35079;52.704;13.814;2022-07-10T01:21:29;6.82;;;1.48;;
49241;SDS011;35079;52.704;13.814;2022-07-10T01:23:56;7.40;;;2.25;;
49241;SDS011;35079;52.704;13.814;2022-07-10T01:26:22;6.78;;;1.95;;
49241;SDS011;35079;52.704;13.814;2022-07-10T01:28:49;6.20;;;1.65;;
49241;SDS011;35079;52.704;13.814;2022-07-10T01:31:18;8.10;;;1.67;;
49241;SDS011;35079;52.704;13.814;2022-07-10T01:33:49;3.75;;;1.45;;
49241;SDS011;35079;52.704;13.814;2022-07-10T01:36:14;5.30;;;1.55;;
49241;SDS011;35079;52.704;13.814;2022-07-10T01:38:41;12.70;;;1.50;;
49241;SDS011;35079;52.704;13.814;2022-07-10T01:41:06;8.85;;;1.90;;
49241;SDS011;35079;52.704;13.814;2022-07-10T01:43:33;10.38;;;2.33;;
49241;SDS011;35079;52.704;13.814;2022-07-10T01:46:00;8.07;;;1.65;;
49241;SDS011;35079;52.704;13.814;2022-07-10T01:48:26;11.02;;;1.50;;
49241;SDS011;35079;52.704;13.814;2022-07-10T01:50:51;5.63;;;1.73;;
49241;SDS011;35079;52.704;13.814;2022-07-10T01:53:17;5.80;;;1.50;;
49241;SDS011;35079;52.704;13.814;2022-07-10T01:55:43;7.80;;;1.42;;
49241;SDS011;35079;52.704;13.814;2022-07-10T01:58:08;10.70;;;2.30;;
49241;SDS011;35079;52.704;13.814;2022-07-10T02:00:34;4.90;;;1.30;;
49241;SDS011;35079;52.704;13.814;2022-07-10T02:02:59;4.95;;;1.20;;
49241;SDS011;35079;52.704;13.814;2022-07-10T02:05:44;5.00;;;1.40;;
49241;SDS011;35079;52.704;13.814;2022-07-10T02:08:09;6.50;;;1.35;;
49241;SDS011;35079;52.704;13.814;2022-07-10T02:10:35;8.20;;;1.60;;
49241;SDS011;35079;52.704;13.814;2022-07-10T02:13:00;5.38;;;1.40;;
49241;SDS011;35079;52.704;13.814;2022-07-10T02:15:26;6.00;;;1.25;;
49241;SDS011;35079;52.704;13.814;2022-07-10T02:17:51;4.68;;;1.30;;
49241;SDS011;35079;52.704;13.814;2022-07-10T02:20:17;9.52;;;1.40;;
49241;SDS011;35079;52.704;13.814;2022-07-10T02:22:43;5.97;;;1.42;;
49241;SDS011;35079;52.704;13.814;2022-07-10T02:25:08;6.10;;;1.25;;
49241;SDS011;35079;52.704;13.814;2022-07-10T02:27:35;8.05;;;1.83;;
49241;SDS011;35079;52.704;13.814;2022-07-10T02:30:00;8.65;;;1.65;;
49241;SDS011;35079;52.704;13.814;2022-07-10T02:32:26;9.38;;;1.58;;
49241;SDS011;35079;52.704;13.814;2022-07-10T02:34:51;10.15;;;1.48;;
49241;SDS011;35079;52.704;13.814;2022-07-10T02:37:17;6.57;;;1.33;;
49241;SDS011;35079;52.704;13.814;2022-07-10T02:39:42;7.10;;;1.55;;
49241;SDS011;35079;52.704;13.814;2022-07-10T02:42:08;4.65;;;1.30;;
49241;SDS011;35079;52.704;13.814;2022-07-10T02:44:34;7.72;;;1.73;;
49241;SDS011;35079;52.704;13.814;2022-07-10T02:46:59;5.57;;;1.17;;
49241;SDS011;35079;52.704;13.814;2022-07-10T02:49:25;5.50;;;1.20;;
49241;SDS011;35079;52.704;13.814;2022-07-10T02:51:50;4.70;;;1.40;;
49241;SDS011;35079;52.704;13.814;2022-07-10T02:54:16;5.05;;;1.27;;
49241;SDS011;35079;52.704;13.814;2022-07-10T02:56:42;6.10;;;1.20;;
49241;SDS011;35079;52.704;13.814;2022-07-10T02:59:07;4.90;;;1.30;;
49241;SDS011;35079;52.704;13.814;2022-07-10T03:01:33;3.53;;;1.30;;
49241;SDS011;35079;52.704;13.814;2022-07-10T03:03:58;9.80;;;1.60;;
49241;SDS011;35079;52.704;13.814;2022-07-10T03:06:26;9.02;;;1.40;;
49241;SDS011;35079;52.704;13.814;2022-07-10T03:08:52;3.28;;;1.20;;
49241;SDS011;35079;52.704;13.814;2022-07-10T03:11:17;7.53;;;1.55;;
49241;SDS011;35079;52.704;13.814;2022-07-10T03:13:43;5.18;;;1.33;;
49241;SDS011;35079;52.704;13.814;2022-07-10T03:16:09;4.65;;;1.40;;
49241;SDS011;35079;52.704;13.814;2022-07-10T03:18:34;5.13;;;1.30;;
49241;SDS011;35079;52.704;13.814;2022-07-10T03:21:00;7.10;;;1.30;;
49241;SDS011;35079;52.704;13.814;2022-07-10T03:23:25;9.00;;;1.45;;
49241;SDS011;35079;52.704;13.814;2022-07-10T03:25:51;4.70;;;1.40;;
49241;SDS011;35079;52.704;13.814;2022-07-10T03:28:17;7.82;;;1.27;;
49241;SDS011;35079;52.704;13.814;2022-07-10T03:30:42;4.97;;;1.30;;
49241;SDS011;35079;52.704;13.814;2022-07-10T03:33:08;6.72;;;1.70;;
49241;SDS011;35079;52.704;13.814;2022-07-10T03:35:33;4.65;;;1.55;;
49241;SDS011;35079;52.704;13.814;2022-07-10T03:37:59;6.70;;;1.60;;
49241;SDS011;35079;52.704;13.814;2022-07-10T03:40:25;6.60;;;1.33;;
49241;SDS011;35079;52.704;13.814;2022-07-10T03:42:51;5.10;;;1.38;;
49241;SDS011;35079;52.704;13.814;2022-07-10T03:45:17;4.47;;;1.25;;
49241;SDS011;35079;52.704;13.814;2022-07-10T03:47:42;4.05;;;1.55;;
49241;SDS011;35079;52.704;13.814;2022-07-10T03:50:08;4.82;;;1.30;;
49241;SDS011;35079;52.704;13.814;2022-07-10T03:52:34;5.00;;;1.33;;
49241;SDS011;35079;52.704;13.814;2022-07-10T03:55:00;3.90;;;1.40;;
49241;SDS011;35079;52.704;13.814;2022-07-10T03:57:26;5.18;;;1.48;;
49241;SDS011;35079;52.704;13.814;2022-07-10T04:00:10;5.97;;;1.33;;
49241;SDS011;35079;52.704;13.814;2022-07-10T04:02:36;3.47;;;1.30;;
49241;SDS011;35079;52.704;13.814;2022-07-10T04:05:04;6.43;;;1.40;;
49241;SDS011;35079;52.704;13.814;2022-07-10T04:07:31;6.32;;;1.25;;
49241;SDS011;35079;52.704;13.814;2022-07-10T04:09:57;7.72;;;1.42;;
49241;SDS011;35079;52.704;13.814;2022-07-10T04:12:22;4.78;;;1.20;;
49241;SDS011;35079;52.704;13.814;2022-07-10T04:14:48;8.55;;;1.38;;
49241;SDS011;35079;52.704;13.814;2022-07-10T04:17:16;4.40;;;1.08;;
49241;SDS011;35079;52.704;13.814;2022-07-10T04:19:42;7.22;;;1.10;;
49241;SDS011;35079;52.704;13.814;2022-07-10T04:22:11;5.30;;;0.90;;
49241;SDS011;35079;52.704;13.814;2022-07-10T04:24:37;4.82;;;1.20;;
49241;SDS011;35079;52.704;13.814;2022-07-10T04:27:02;7.13;;;1.25;;
49241;SDS011;35079;52.704;13.814;2022-07-10T04:29:28;6.35;;;1.33;;
49241;SDS011;35079;52.704;13.814;2022-07-10T04:31:54;5.97;;;1.33;;
49241;SDS011;35079;52.704;13.814;2022-07-10T04:34:19;6.63;;;1.23;;
49241;SDS011;35079;52.704;13.814;2022-07-10T04:36:45;6.00;;;1.40;;
49241;SDS011;35079;52.704;13.814;2022-07-10T04:39:10;5.53;;;1.60;;
49241;SDS011;35079;52.704;13.814;2022-07-10T04:41:36;6.88;;;1.65;;
49241;SDS011;35079;52.704;13.814;2022-07-10T04:44:02;2.53;;;1.20;;
49241;SDS011;35079;52.704;13.814;2022-07-10T04:46:28;7.70;;;2.00;;
49241;SDS011;35079;52.704;13.814;2022-07-10T04:48:53;5.20;;;1.05;;
49241;SDS011;35079;52.704;13.814;2022-07-10T04:51:19;3.63;;;1.27;;
49241;SDS011;35079;52.704;13.814;2022-07-10T04:53:45;4.40;;;1.10;;
49241;SDS011;35079;52.704;13.814;2022-07-10T04:56:11;3.67;;;1.08;;
49241;SDS011;35079;52.704;13.814;2022-07-10T04:58:36;5.35;;;1.30;;
49241;SDS011;35079;52.704;13.814;2022-07-10T05:01:02;3.90;;;1.30;;
49241;SDS011;35079;52.704;13.814;2022-07-10T05:03:28;4.18;;;1.10;;
49241;SDS011;35079;52.704;13.814;2022-07-10T05:05:54;4.72;;;1.23;;
49241;SDS011;35079;52.704;13.814;2022-07-10T05:08:19;6.60;;;1.50;;
49241;SDS011;35079;52.704;13.814;2022-07-10T05:10:45;4.90;;;1.40;;
49241;SDS011;35079;52.704;13.814;2022-07-10T05:13:11;5.88;;;1.50;;
49241;SDS011;35079;52.704;13.814;2022-07-10T05:15:37;8.20;;;1.55;;
49241;SDS011;35079;52.704;13.814;2022-07-10T05:18:03;8.88;;;1.40;;
49241;SDS011;35079;52.704;13.814;2022-07-10T05:20:29;3.63;;;1.23;;
49241;SDS011;35079;52.704;13.814;2022-07-10T05:22:55;7.00;;;1.70;;
49241;SDS011;35079;52.704;13.814;2022-07-10T05:25:21;4.70;;;1.40;;
49241;SDS011;35079;52.704;13.814;2022-07-10T05:27:47;4.72;;;1.75;;
49241;SDS011;35079;52.704;13.814;2022-07-10T05:30:12;9.80;;;1.60;;
49241;SDS011;35079;52.704;13.814;2022-07-10T05:32:42;9.02;;;1.88;;
49241;SDS011;35079;52.704;13.814;2022-07-10T05:35:09;8.23;;;2.08;;
49241;SDS011;35079;52.704;13.814;2022-07-10T05:37:35;8.13;;;1.63;;
49241;SDS011;35079;52.704;13.814;2022-07-10T05:40:00;7.65;;;1.83;;
49241;SDS011;35079;52.704;13.814;2022-07-10T05:42:26;3.58;;;1.48;;
49241;SDS011;35079;52.704;13.814;2022-07-10T05:44:52;3.05;;;1.33;;
49241;SDS011;35079;52.704;13.814;2022-07-10T05:47:17;5.10;;;1.50;;
49241;SDS011;35079;52.704;13.814;2022-07-10T05:49:43;7.63;;;1.67;;
49241;SDS011;35079;52.704;13.814;2022-07-10T05:52:09;3.83;;;1.30;;
49241;SDS011;35079;52.704;13.814;2022-07-10T05:54:34;5.68;;;1.63;;
49241;SDS011;35079;52.704;13.814;2022-07-10T05:57:00;8.05;;;1.63;;
49241;SDS011;35079;52.704;13.814;2022-07-10T05:59:26;7.05;;;1.55;;
49241;SDS011;35079;52.704;13.814;2022-07-10T06:01:51;7.32;;;1.63;;
49241;SDS011;35079;52.704;13.814;2022-07-10T06:04:17;6.18;;;1.73;;
49241;SDS011;35079;52.704;13.814;2022-07-10T06:06:42;5.38;;;2.17;;
49241;SDS011;35079;52.704;13.814;2022-07-10T06:09:08;5.97;;;1.67;;
49241;SDS011;35079;52.704;13.814;2022-07-10T06:11:34;7.22;;;1.75;;
49241;SDS011;35079;52.704;13.814;2022-07-10T06:14:00;8.02;;;1.73;;
49241;SDS011;35079;52.704;13.814;2022-07-10T06:16:26;8.32;;;1.70;;
49241;SDS011;35079;52.704;13.814;2022-07-10T06:18:52;5.13;;;1.73;;
49241;SDS011;35079;52.704;13.814;2022-07-10T06:21:21;6.55;;;1.70;;
49241;SDS011;35079;52.704;13.814;2022-07-10T06:23:48;7.75;;;1.50;;
49241;SDS011;35079;52.704;13.814;2022-07-10T06:26:13;6.53;;;1.70;;
49241;SDS011;35079;52.704;13.814;2022-07-10T06:28:39;8.25;;;1.90;;
49241;SDS011;35079;52.704;13.814;2022-07-10T06:31:05;8.15;;;1.92;;
49241;SDS011;35079;52.704;13.814;2022-07-10T06:33:31;10.75;;;2.17;;
49241;SDS011;35079;52.704;13.814;2022-07-10T06:35:57;5.35;;;1.73;;
49241;SDS011;35079;52.704;13.814;2022-07-10T06:38:23;6.93;;;1.88;;
49241;SDS011;35079;52.704;13.814;2022-07-10T06:40:49;7.57;;;1.63;;
49241;SDS011;35079;52.704;13.814;2022-07-10T06:43:16;7.22;;;1.73;;
49241;SDS011;35079;52.704;13.814;2022-07-10T06:45:41;12.82;;;2.40;;
49241;SDS011;35079;52.704;13.814;2022-07-10T06:48:07;5.55;;;1.70;;
49241;SDS011;35079;52.704;13.814;2022-07-10T06:50:34;10.68;;;1.77;;
49241;SDS011;35079;52.704;13.814;2022-07-10T06:53:02;6.88;;;1.63;;
49241;SDS011;35079;52.704;13.814;2022-07-10T06:55:34;10.77;;;2.25;;
49241;SDS011;35079;52.704;13.814;2022-07-10T06:58:00;8.57;;;1.80;;
49241;SDS011;35079;52.704;13.814;2022-07-10T07:00:29;5.68;;;2.10;;
49241;SDS011;35079;52.704;13.814;2022-07-10T07:02:55;8.23;;;1.75;;
49241;SDS011;35079;52.704;13.814;2022-07-10T07:05:20;6.20;;;1.90;;
49241;SDS011;35079;52.704;13.814;2022-07-10T07:07:46;11.18;;;1.90;;
49241;SDS011;35079;52.704;13.814;2022-07-10T07:10:15;6.57;;;2.00;;
49241;SDS011;35079;52.704;13.814;2022-07-10T07:12:50;5.03;;;1.80;;
49241;SDS011;35079;52.704;13.814;2022-07-10T07:15:21;9.18;;;1.92;;
49241;SDS011;35079;52.704;13.814;2022-07-10T07:17:49;11.00;;;2.05;;
49241;SDS011;35079;52.704;13.814;2022-07-10T07:20:44;7.28;;;1.98;;
49241;SDS011;35079;52.704;13.814;2022-07-10T07:23:28;6.00;;;1.98;;
49241;SDS011;35079;52.704;13.814;2022-07-10T07:25:54;7.45;;;2.00;;
49241;SDS011;35079;52.704;13.814;2022-07-10T07:28:20;9.30;;;1.85;;
49241;SDS011;35079;52.704;13.814;2022-07-10T07:30:47;11.10;;;2.00;;
49241;SDS011;35079;52.704;13.814;2022-07-10T07:33:13;10.65;;;2.47;;
49241;SDS011;35079;52.704;13.814;2022-07-10T07:35:44;9.23;;;2.05;;
49241;SDS011;35079;52.704;13.814;2022-07-10T07:38:13;10.60;;;2.28;;
49241;SDS011;35079;52.704;13.814;2022-07-10T07:40:41;9.52;;;2.70;;
49241;SDS011;35079;52.704;13.814;2022-07-10T08:00:33;10.63;;;2.20;;
49241;SDS011;35079;52.704;13.814;2022-07-10T08:27:03;6.10;;;1.58;;
49241;SDS011;35079;52.704;13.814;2022-07-10T08:57:22;10.32;;;2.70;;
49241;SDS011;35079;52.704;13.814;2022-07-10T08:59:49;8.25;;;1.85;;
49241;SDS011;35079;52.704;13.814;2022-07-10T09:02:15;16.20;;;3.13;;
49241;SDS011;35079;52.704;13.814;2022-07-10T09:04:41;10.18;;;1.90;;
49241;SDS011;35079;52.704;13.814;2022-07-10T09:07:06;12.85;;;2.20;;
49241;SDS011;35079;52.704;13.814;2022-07-10T09:09:37;5.40;;;1.70;;
49241;SDS011;35079;52.704;13.814;2022-07-10T09:12:30;5.78;;;1.60;;
49241;SDS011;35079;52.704;13.814;2022-07-10T09:15:21;9.88;;;1.80;;
49241;SDS011;35079;52.704;13.814;2022-07-10T09:17:49;6.60;;;1.83;;
49241;SDS011;35079;52.704;13.814;2022-07-10T09:22:51;7.75;;;1.85;;
49241;SDS011;35079;52.704;13.814;2022-07-10T09:25:17;6.75;;;1.67;;
49241;SDS011;35079;52.704;13.814;2022-07-10T09:27:53;5.60;;;1.80;;
49241;SDS011;35079;52.704;13.814;2022-07-10T09:30:38;8.65;;;1.92;;
49241;SDS011;35079;52.704;13.814;2022-07-10T09:36:07;9.18;;;2.13;;
49241;SDS011;35079;52.704;13.814;2022-07-10T09:41:12;5.38;;;1.80;;
49241;SDS011;35079;52.704;13.814;2022-07-10T09:44:02;7.00;;;1.67;;
49241;SDS011;35079;52.704;13.814;2022-07-10T09:49:08;9.27;;;1.92;;
49241;SDS011;35079;52.704;13.814;2022-07-10T09:54:11;7.13;;;1.30;;
49241;SDS011;35079;52.704;13.814;2022-07-10T09:56:50;9.80;;;2.22;;
49241;SDS011;35079;52.704;13.814;2022-07-10T09:59:20;7.28;;;1.45;;
49241;SDS011;35079;52.704;13.814;2022-07-10T10:01:47;6.80;;;1.55;;
49241;SDS011;35079;52.704;13.814;2022-07-10T10:04:17;7.95;;;1.70;;
49241;SDS011;35079;52.704;13.814;2022-07-10T10:06:45;6.63;;;1.50;;
49241;SDS011;35079;52.704;13.814;2022-07-10T10:11:59;5.43;;;1.80;;
49241;SDS011;35079;52.704;13.814;2022-07-10T10:14:30;8.88;;;1.83;;
49241;SDS011;35079;52.704;13.814;2022-07-10T10:17:01;6.95;;;1.63;;
49241;SDS011;35079;52.704;13.814;2022-07-10T10:19:54;8.60;;;1.92;;
49241;SDS011;35079;52.704;13.814;2022-07-10T10:22:42;6.57;;;1.40;;
49241;SDS011;35079;52.704;13.814;2022-07-10T10:25:12;5.55;;;1.30;;
49241;SDS011;35079;52.704;13.814;2022-07-10T10:27:50;6.50;;;1.70;;
49241;SDS011;35079;52.704;13.814;2022-07-10T10:30:23;6.35;;;1.58;;
49241;SDS011;35079;52.704;13.814;2022-07-10T10:32:49;5.65;;;1.42;;
49241;SDS011;35079;52.704;13.814;2022-07-10T10:47:57;7.65;;;1.50;;
49241;SDS011;35079;52.704;13.814;2022-07-10T10:50:36;7.65;;;1.58;;
49241;SDS011;35079;52.704;13.814;2022-07-10T10:58:58;6.22;;;1.30;;
49241;SDS011;35079;52.704;13.814;2022-07-10T11:01:25;4.82;;;1.40;;
49241;SDS011;35079;52.704;13.814;2022-07-10T11:06:39;8.38;;;1.67;;
49241;SDS011;35079;52.704;13.814;2022-07-10T11:09:26;6.57;;;1.63;;
49241;SDS011;35079;52.704;13.814;2022-07-10T11:12:08;7.50;;;1.95;;
49241;SDS011;35079;52.704;13.814;2022-07-10T11:14:36;5.43;;;1.95;;
49241;SDS011;35079;52.704;13.814;2022-07-10T11:17:05;5.18;;;1.70;;
49241;SDS011;35079;52.704;13.814;2022-07-10T11:19:32;5.45;;;1.40;;
49241;SDS011;35079;52.704;13.814;2022-07-10T11:22:03;9.10;;;1.67;;
49241;SDS011;35079;52.704;13.814;2022-07-10T11:25:03;7.43;;;1.38;;
49241;SDS011;35079;52.704;13.814;2022-07-10T11:30:45;6.10;;;1.60;;
49241;SDS011;35079;52.704;13.814;2022-07-10T11:33:15;3.08;;;1.30;;
49241;SDS011;35079;52.704;13.814;2022-07-10T11:35:43;7.35;;;1.42;;
49241;SDS011;35079;52.704;13.814;2022-07-10T11:38:11;7.43;;;1.35;;
49241;SDS011;35079;52.704;13.814;2022-07-10T11:40:36;5.13;;;1.50;;
49241;SDS011;35079;52.704;13.814;2022-07-10T11:43:02;5.10;;;1.30;;
49241;SDS011;35079;52.704;13.814;2022-07-10T11:45:32;6.38;;;1.20;;
49241;SDS011;35079;52.704;13.814;2022-07-10T11:48:00;8.80;;;1.58;;
49241;SDS011;35079;52.704;13.814;2022-07-10T11:50:26;5.30;;;1.40;;
49241;SDS011;35079;52.704;13.814;2022-07-10T11:52:53;5.30;;;1.23;;
49241;SDS011;35079;52.704;13.814;2022-07-10T11:55:20;3.50;;;1.25;;
49241;SDS011;35079;52.704;13.814;2022-07-10T11:57:47;4.40;;;1.17;;
49241;SDS011;35079;52.704;13.814;2022-07-10T12:02:51;3.40;;;1.10;;
49241;SDS011;35079;52.704;13.814;2022-07-10T12:05:39;4.55;;;1.30;;
49241;SDS011;35079;52.704;13.814;2022-07-10T12:08:04;4.88;;;1.02;;
49241;SDS011;35079;52.704;13.814;2022-07-10T12:10:31;3.90;;;1.52;;
49241;SDS011;35079;52.704;13.814;2022-07-10T12:13:05;6.25;;;1.50;;
49241;SDS011;35079;52.704;13.814;2022-07-10T12:15:32;5.35;;;1.45;;
49241;SDS011;35079;52.704;13.814;2022-07-10T12:18:03;5.68;;;1.33;;
49241;SDS011;35079;52.704;13.814;2022-07-10T12:20:48;5.72;;;1.20;;
49241;SDS011;35079;52.704;13.814;2022-07-10T12:23:15;5.22;;;1.20;;
49241;SDS011;35079;52.704;13.814;2022-07-10T12:25:46;5.30;;;1.30;;
49241;SDS011;35079;52.704;13.814;2022-07-10T12:28:15;6.82;;;1.67;;
49241;SDS011;35079;52.704;13.814;2022-07-10T12:30:42;2.83;;;1.17;;
49241;SDS011;35079;52.704;13.814;2022-07-10T12:33:20;6.30;;;1.52;;
49241;SDS011;35079;52.704;13.814;2022-07-10T12:35:49;4.78;;;1.52;;
49241;SDS011;35079;52.704;13.814;2022-07-10T12:38:21;3.47;;;1.13;;
49241;SDS011;35079;52.704;13.814;2022-07-10T12:40:48;4.65;;;1.38;;
49241;SDS011;35079;52.704;13.814;2022-07-10T12:43:24;5.35;;;1.30;;
49241;SDS011;35079;52.704;13.814;2022-07-10T12:46:10;6.43;;;1.50;;
49241;SDS011;35079;52.704;13.814;2022-07-10T12:48:39;3.85;;;1.17;;
49241;SDS011;35079;52.704;13.814;2022-07-10T12:53:51;5.10;;;1.30;;
49241;SDS011;35079;52.704;13.814;2022-07-10T12:56:36;3.47;;;1.20;;
49241;SDS011;35079;52.704;13.814;2022-07-10T12:59:04;5.18;;;1.23;;
49241;SDS011;35079;52.704;13.814;2022-07-10T13:01:40;3.42;;;1.10;;
49241;SDS011;35079;52.704;13.814;2022-07-10T13:04:09;3.60;;;1.10;;
49241;SDS011;35079;52.704;13.814;2022-07-10T13:06:36;4.75;;;1.02;;
49241;SDS011;35079;52.704;13.814;2022-07-10T13:09:17;5.00;;;1.33;;
49241;SDS011;35079;52.704;13.814;2022-07-10T13:11:45;4.70;;;1.17;;
49241;SDS011;35079;52.704;13.814;2022-07-10T13:14:11;5.35;;;1.30;;
49241;SDS011;35079;52.704;13.814;2022-07-10T13:16:36;4.20;;;1.10;;
49241;SDS011;35079;52.704;13.814;2022-07-10T13:19:02;3.60;;;1.17;;
49241;SDS011;35079;52.704;13.814;2022-07-10T13:21:28;7.00;;;1.30;;
49241;SDS011;35079;52.704;13.814;2022-07-10T13:23:53;4.68;;;1.30;;
49241;SDS011;35079;52.704;13.814;2022-07-10T13:26:20;4.72;;;1.00;;
49241;SDS011;35079;52.704;13.814;2022-07-10T13:28:45;3.05;;;1.02;;
49241;SDS011;35079;52.704;13.814;2022-07-10T13:31:11;5.07;;;1.20;;
49241;SDS011;35079;52.704;13.814;2022-07-10T13:33:37;4.10;;;1.23;;
49241;SDS011;35079;52.704;13.814;2022-07-10T13:36:03;4.20;;;1.15;;
49241;SDS011;35079;52.704;13.814;2022-07-10T13:38:29;5.10;;;1.20;;
49241;SDS011;35079;52.704;13.814;2022-07-10T13:40:55;3.95;;;1.10;;
49241;SDS011;35079;52.704;13.814;2022-07-10T13:43:21;3.33;;;1.10;;
49241;SDS011;35079;52.704;13.814;2022-07-10T13:45:51;4.57;;;1.05;;
49241;SDS011;35079;52.704;13.814;2022-07-10T13:48:18;2.70;;;0.75;;
49241;SDS011;35079;52.704;13.814;2022-07-10T13:50:44;3.22;;;1.27;;
49241;SDS011;35079;52.704;13.814;2022-07-10T13:53:13;5.45;;;0.95;;
49241;SDS011;35079;52.704;13.814;2022-07-10T13:55:39;3.72;;;0.88;;
49241;SDS011;35079;52.704;13.814;2022-07-10T13:58:05;6.25;;;1.27;;
49241;SDS011;35079;52.704;13.814;2022-07-10T14:00:31;3.58;;;0.93;;
49241;SDS011;35079;52.704;13.814;2022-07-10T14:02:57;6.38;;;1.30;;
49241;SDS011;35079;52.704;13.814;2022-07-10T14:05:25;4.68;;;1.42;;
49241;SDS011;35079;52.704;13.814;2022-07-10T14:07:51;3.53;;;1.15;;
49241;SDS011;35079;52.704;13.814;2022-07-10T14:10:17;4.18;;;1.10;;
49241;SDS011;35079;52.704;13.814;2022-07-10T14:12:42;7.22;;;1.10;;
49241;SDS011;35079;52.704;13.814;2022-07-10T14:15:08;4.30;;;1.20;;
49241;SDS011;35079;52.704;13.814;2022-07-10T14:17:34;5.50;;;1.42;;
49241;SDS011;35079;52.704;13.814;2022-07-10T14:20:00;5.68;;;1.13;;
49241;SDS011;35079;52.704;13.814;2022-07-10T14:22:26;4.78;;;1.40;;
49241;SDS011;35079;52.704;13.814;2022-07-10T14:24:53;5.55;;;1.40;;
49241;SDS011;35079;52.704;13.814;2022-07-10T14:27:21;3.38;;;1.13;;
49241;SDS011;35079;52.704;13.814;2022-07-10T14:29:49;5.75;;;1.33;;
49241;SDS011;35079;52.704;13.814;2022-07-10T14:32:14;3.90;;;1.10;;
49241;SDS011;35079;52.704;13.814;2022-07-10T14:34:40;2.95;;;1.10;;
49241;SDS011;35079;52.704;13.814;2022-07-10T14:37:06;3.03;;;0.98;;
49241;SDS011;35079;52.704;13.814;2022-07-10T14:39:31;2.83;;;0.98;;
49241;SDS011;35079;52.704;13.814;2022-07-10T14:41:57;2.47;;;0.90;;
49241;SDS011;35079;52.704;13.814;2022-07-10T14:44:23;3.50;;;1.00;;
49241;SDS011;35079;52.704;13.814;2022-07-10T14:46:48;3.15;;;0.90;;
49241;SDS011;35079;52.704;13.814;2022-07-10T14:49:14;3.72;;;0.90;;
49241;SDS011;35079;52.704;13.814;2022-07-10T14:51:39;6.13;;;1.05;;
49241;SDS011;35079;52.704;13.814;2022-07-10T14:54:06;4.95;;;1.08;;
49241;SDS011;35079;52.704;13.814;2022-07-10T14:56:32;5.15;;;1.20;;
49241;SDS011;35079;52.704;13.814;2022-07-10T14:58:58;4.55;;;1.13;;
49241;SDS011;35079;52.704;13.814;2022-07-10T15:01:24;3.00;;;1.13;;
49241;SDS011;35079;52.704;13.814;2022-07-10T15:03:49;4.00;;;1.13;;
49241;SDS011;35079;52.704;13.814;2022-07-10T15:06:15;3.13;;;0.90;;
49241;SDS011;35079;52.704;13.814;2022-07-10T15:08:41;2.08;;;0.88;;
49241;SDS011;35079;52.704;13.814;2022-07-10T15:14:52;3.33;;;0.98;;
49241;SDS011;35079;52.704;13.814;2022-07-10T15:17:19;2.85;;;0.93;;
49241;SDS011;35079;52.704;13.814;2022-07-10T15:20:02;6.53;;;1.30;;
49241;SDS011;35079;52.704;13.814;2022-07-10T15:22:29;3.58;;;0.90;;
49241;SDS011;35079;52.704;13.814;2022-07-10T15:24:56;3.65;;;1.13;;
49241;SDS011;35079;52.704;13.814;2022-07-10T15:27:22;3.63;;;1.17;;
49241;SDS011;35079;52.704;13.814;2022-07-10T15:29:48;4.60;;;1.20;;
49241;SDS011;35079;52.704;13.814;2022-07-10T15:32:14;2.95;;;1.00;;
49241;SDS011;35079;52.704;13.814;2022-07-10T15:34:39;4.05;;;0.93;;
49241;SDS011;35079;52.704;13.814;2022-07-10T15:37:05;2.45;;;0.90;;
49241;SDS011;35079;52.704;13.814;2022-07-10T15:39:31;2.30;;;0.90;;
49241;SDS011;35079;52.704;13.814;2022-07-10T15:42:06;3.60;;;1.05;;
49241;SDS011;35079;52.704;13.814;2022-07-10T15:44:33;5.18;;;1.10;;
49241;SDS011;35079;52.704;13.814;2022-07-10T15:46:58;1.15;;;0.73;;
49241;SDS011;35079;52.704;13.814;2022-07-10T15:49:24;6.75;;;1.00;;
49241;SDS011;35079;52.704;13.814;2022-07-10T15:51:50;3.38;;;1.10;;
49241;SDS011;35079;52.704;13.814;2022-07-10T15:54:15;5.43;;;1.00;;
49241;SDS011;35079;52.704;13.814;2022-07-10T15:56:43;5.72;;;1.40;;
49241;SDS011;35079;52.704;13.814;2022-07-10T15:59:18;3.30;;;0.90;;
49241;SDS011;35079;52.704;13.814;2022-07-10T16:01:51;4.35;;;0.90;;
49241;SDS011;35079;52.704;13.814;2022-07-10T16:04:19;5.60;;;1.20;;
49241;SDS011;35079;52.704;13.814;2022-07-10T16:06:52;5.50;;;1.77;;
49241;SDS011;35079;52.704;13.814;2022-07-10T16:09:19;6.03;;;1.42;;
49241;SDS011;35079;52.704;13.814;2022-07-10T16:12:04;5.07;;;1.10;;
49241;SDS011;35079;52.704;13.814;2022-07-10T16:14:30;2.72;;;1.02;;
49241;SDS011;35079;52.704;13.814;2022-07-10T16:16:56;3.70;;;1.05;;
49241;SDS011;35079;52.704;13.814;2022-07-10T16:19:22;4.47;;;0.85;;
49241;SDS011;35079;52.704;13.814;2022-07-10T16:21:57;4.20;;;1.00;;
49241;SDS011;35079;52.704;13.814;2022-07-10T16:24:23;4.32;;;1.20;;
49241;SDS011;35079;52.704;13.814;2022-07-10T16:26:49;2.90;;;0.90;;
49241;SDS011;35079;52.704;13.814;2022-07-10T16:29:15;5.40;;;1.08;;
49241;SDS011;35079;52.704;13.814;2022-07-10T16:31:42;4.30;;;1.02;;
49241;SDS011;35079;52.704;13.814;2022-07-10T16:34:08;4.28;;;0.93;;
49241;SDS011;35079;52.704;13.814;2022-07-10T16:36:35;3.75;;;0.93;;